sensor_id;sensor_type;location;lat;lon;timestamp;P1;P2;P0
39955;PMS5003;25631;51.516;-0.470;2023-07-13T00:00:04;9;8;
39955;PMS5003;25631;51.516;-0.470;2023-07-13T00:02:42;8;7;
39955;PMS5003;25631;51.516;-0.470;2023-07-13T00:05:19;7;7;
39955;PMS5003;25631;51.516;-0.470;2023-07-13T00:07:56;4;3;
39955;PMS5003;25631;51.516;-0.470;2023-07-13T00:10:33;4;3;
39955;PMS5003;25631;51.516;-0.470;2023-07-13T00:13:09;4;3;
39955;PMS5003;25631;51.516;-0.470;2023-07-13T00:15:46;3;3;
39955;PMS5003;25631;51.516;-0.470;2023-07-13T00:18:23;3;3;
39955;PMS5003;25631;51.516;-0.470;2023-07-13T00:21:00;3;2;
39955;PMS5003;25631;51.516;-0.470;2023-07-13T00:23:37;5;4;
39955;PMS5003;25631;51.516;-0.470;2023-07-13T00:26:15;5;4;
39955;PMS5003;25631;51.516;-0.470;2023-07-13T00:28:51;2;2;
39955;PMS5003;25631;51.516;-0.470;2023-07-13T00:31:27;2;2;
39955;PMS5003;25631;51.516;-0.470;2023-07-13T00:34:04;2;2;
39955;PMS5003;25631;51.516;-0.470;2023-07-13T00:36:40;2;2;
39955;PMS5003;25631;51.516;-0.470;2023-07-13T00:39:17;2;2;
39955;PMS5003;25631;51.516;-0.470;2023-07-13T00:41:53;1;1;
39955;PMS5003;25631;51.516;-0.470;2023-07-13T00:44:29;0;0;
39955;PMS5003;25631;51.516;-0.470;2023-07-13T00:47:09;3;2;
39955;PMS5003;25631;51.516;-0.470;2023-07-13T00:49:46;2;2;
39955;PMS5003;25631;51.516;-0.470;2023-07-13T00:52:22;2;2;
39955;PMS5003;25631;51.516;-0.470;2023-07-13T00:54:59;2;2;
39955;PMS5003;25631;51.516;-0.470;2023-07-13T00:57:36;1;1;
39955;PMS5003;25631;51.516;-0.470;2023-07-13T01:00:13;2;2;
39955;PMS5003;25631;51.516;-0.470;2023-07-13T01:02:50;2;2;
39955;PMS5003;25631;51.516;-0.470;2023-07-13T01:05:26;2;2;
39955;PMS5003;25631;51.516;-0.470;2023-07-13T01:08:03;2;2;
39955;PMS5003;25631;51.516;-0.470;2023-07-13T01:10:40;2;2;
39955;PMS5003;25631;51.516;-0.470;2023-07-13T01:13:16;2;1;
39955;PMS5003;25631;51.516;-0.470;2023-07-13T01:15:55;0;0;
39955;PMS5003;25631;51.516;-0.470;2023-07-13T01:18:36;1;1;
39955;PMS5003;25631;51.516;-0.470;2023-07-13T01:21:13;1;1;
39955;PMS5003;25631;51.516;-0.470;2023-07-13T01:23:49;2;2;
39955;PMS5003;25631;51.516;-0.470;2023-07-13T01:26:26;2;2;
39955;PMS5003;25631;51.516;-0.470;2023-07-13T01:29:02;3;2;
39955;PMS5003;25631;51.516;-0.470;2023-07-13T01:31:39;2;1;
39955;PMS5003;25631;51.516;-0.470;2023-07-13T01:34:15;2;2;
39955;PMS5003;25631;51.516;-0.470;2023-07-13T01:36:52;3;2;
39955;PMS5003;25631;51.516;-0.470;2023-07-13T01:39:28;2;2;
39955;PMS5003;25631;51.516;-0.470;2023-07-13T01:42:04;1;1;
39955;PMS5003;25631;51.516;-0.470;2023-07-13T01:44:41;1;1;
39955;PMS5003;25631;51.516;-0.470;2023-07-13T01:47:17;1;1;
39955;PMS5003;25631;51.516;-0.470;2023-07-13T01:49:54;1;1;
39955;PMS5003;25631;51.516;-0.470;2023-07-13T01:52:30;0;0;
39955;PMS5003;25631;51.516;-0.470;2023-07-13T01:55:07;1;1;
39955;PMS5003;25631;51.516;-0.470;2023-07-13T01:57:44;1;1;
39955;PMS5003;25631;51.516;-0.470;2023-07-13T02:00:20;1;1;
39955;PMS5003;25631;51.516;-0.470;2023-07-13T02:02:57;1;1;
39955;PMS5003;25631;51.516;-0.470;2023-07-13T02:05:33;0;0;
39955;PMS5003;25631;51.516;-0.470;2023-07-13T02:08:10;1;0;
39955;PMS5003;25631;51.516;-0.470;2023-07-13T02:10:47;2;0;
39955;PMS5003;25631;51.516;-0.470;2023-07-13T02:13:24;2;1;
39955;PMS5003;25631;51.516;-0.470;2023-07-13T02:16:00;2;2;
39955;PMS5003;25631;51.516;-0.470;2023-07-13T02:18:37;1;1;
39955;PMS5003;25631;51.516;-0.470;2023-07-13T02:21:13;1;1;
39955;PMS5003;25631;51.516;-0.470;2023-07-13T02:23:50;0;0;
39955;PMS5003;25631;51.516;-0.470;2023-07-13T02:26:26;0;0;
39955;PMS5003;25631;51.516;-0.470;2023-07-13T02:29:03;1;1;
39955;PMS5003;25631;51.516;-0.470;2023-07-13T02:31:40;2;1;
39955;PMS5003;25631;51.516;-0.470;2023-07-13T02:34:16;1;1;
39955;PMS5003;25631;51.516;-0.470;2023-07-13T02:36:53;1;1;
39955;PMS5003;25631;51.516;-0.470;2023-07-13T02:39:29;1;1;
39955;PMS5003;25631;51.516;-0.470;2023-07-13T02:42:06;1;1;
39955;PMS5003;25631;51.516;-0.470;2023-07-13T02:44:42;0;0;
39955;PMS5003;25631;51.516;-0.470;2023-07-13T02:47:19;0;0;
39955;PMS5003;25631;51.516;-0.470;2023-07-13T02:49:55;1;1;
39955;PMS5003;25631;51.516;-0.470;2023-07-13T02:52:32;1;1;
39955;PMS5003;25631;51.516;-0.470;2023-07-13T02:55:08;4;3;
39955;PMS5003;25631;51.516;-0.470;2023-07-13T02:57:45;3;3;
39955;PMS5003;25631;51.516;-0.470;2023-07-13T03:00:22;3;3;
39955;PMS5003;25631;51.516;-0.470;2023-07-13T03:02:59;3;3;
39955;PMS5003;25631;51.516;-0.470;2023-07-13T03:05:36;4;3;
39955;PMS5003;25631;51.516;-0.470;2023-07-13T03:08:13;3;2;
39955;PMS5003;25631;51.516;-0.470;2023-07-13T03:10:57;2;2;
39955;PMS5003;25631;51.516;-0.470;2023-07-13T03:13:35;1;1;
39955;PMS5003;25631;51.516;-0.470;2023-07-13T03:16:12;2;2;
39955;PMS5003;25631;51.516;-0.470;2023-07-13T03:18:49;2;2;
39955;PMS5003;25631;51.516;-0.470;2023-07-13T03:21:25;4;3;
39955;PMS5003;25631;51.516;-0.470;2023-07-13T03:24:02;2;2;
39955;PMS5003;25631;51.516;-0.470;2023-07-13T03:26:39;2;2;
39955;PMS5003;25631;51.516;-0.470;2023-07-13T03:29:15;3;1;
39955;PMS5003;25631;51.516;-0.470;2023-07-13T03:31:51;2;1;
39955;PMS5003;25631;51.516;-0.470;2023-07-13T03:34:28;3;2;
39955;PMS5003;25631;51.516;-0.470;2023-07-13T03:37:05;2;2;
39955;PMS5003;25631;51.516;-0.470;2023-07-13T03:39:41;2;2;
39955;PMS5003;25631;51.516;-0.470;2023-07-13T03:42:17;1;1;
39955;PMS5003;25631;51.516;-0.470;2023-07-13T03:44:54;1;1;
39955;PMS5003;25631;51.516;-0.470;2023-07-13T03:47:30;1;1;
39955;PMS5003;25631;51.516;-0.470;2023-07-13T03:50:07;2;2;
39955;PMS5003;25631;51.516;-0.470;2023-07-13T03:52:44;2;2;
39955;PMS5003;25631;51.516;-0.470;2023-07-13T03:55:20;2;2;
39955;PMS5003;25631;51.516;-0.470;2023-07-13T03:57:58;3;3;
39955;PMS5003;25631;51.516;-0.470;2023-07-13T04:00:58;4;4;
39955;PMS5003;25631;51.516;-0.470;2023-07-13T04:03:36;3;2;
39955;PMS5003;25631;51.516;-0.470;2023-07-13T04:06:14;2;2;
39955;PMS5003;25631;51.516;-0.470;2023-07-13T04:08:53;2;2;
39955;PMS5003;25631;51.516;-0.470;2023-07-13T04:11:31;3;2;
39955;PMS5003;25631;51.516;-0.470;2023-07-13T04:14:08;2;2;
39955;PMS5003;25631;51.516;-0.470;2023-07-13T04:16:45;2;1;
39955;PMS5003;25631;51.516;-0.470;2023-07-13T04:19:22;2;2;
39955;PMS5003;25631;51.516;-0.470;2023-07-13T04:21:59;2;2;
39955;PMS5003;25631;51.516;-0.470;2023-07-13T04:24:35;2;2;
39955;PMS5003;25631;51.516;-0.470;2023-07-13T04:27:11;1;0;
39955;PMS5003;25631;51.516;-0.470;2023-07-13T04:29:48;1;0;
39955;PMS5003;25631;51.516;-0.470;2023-07-13T04:32:24;3;3;
39955;PMS5003;25631;51.516;-0.470;2023-07-13T04:35:01;3;3;
39955;PMS5003;25631;51.516;-0.470;2023-07-13T04:37:37;2;2;
39955;PMS5003;25631;51.516;-0.470;2023-07-13T04:40:14;3;2;
39955;PMS5003;25631;51.516;-0.470;2023-07-13T04:42:50;3;2;
39955;PMS5003;25631;51.516;-0.470;2023-07-13T04:45:27;5;4;
39955;PMS5003;25631;51.516;-0.470;2023-07-13T04:48:03;5;4;
39955;PMS5003;25631;51.516;-0.470;2023-07-13T04:50:40;2;2;
39955;PMS5003;25631;51.516;-0.470;2023-07-13T04:53:17;2;2;
39955;PMS5003;25631;51.516;-0.470;2023-07-13T04:55:53;2;2;
39955;PMS5003;25631;51.516;-0.470;2023-07-13T04:58:30;2;2;
39955;PMS5003;25631;51.516;-0.470;2023-07-13T05:01:09;2;2;
39955;PMS5003;25631;51.516;-0.470;2023-07-13T05:03:45;2;2;
39955;PMS5003;25631;51.516;-0.470;2023-07-13T05:06:22;2;2;
39955;PMS5003;25631;51.516;-0.470;2023-07-13T05:08:58;3;3;
39955;PMS5003;25631;51.516;-0.470;2023-07-13T05:11:35;3;3;
39955;PMS5003;25631;51.516;-0.470;2023-07-13T05:14:12;5;4;
39955;PMS5003;25631;51.516;-0.470;2023-07-13T05:16:48;5;4;
39955;PMS5003;25631;51.516;-0.470;2023-07-13T05:19:25;4;3;
39955;PMS5003;25631;51.516;-0.470;2023-07-13T05:22:01;5;4;
39955;PMS5003;25631;51.516;-0.470;2023-07-13T05:24:38;4;3;
39955;PMS5003;25631;51.516;-0.470;2023-07-13T05:27:15;4;3;
39955;PMS5003;25631;51.516;-0.470;2023-07-13T05:29:51;5;3;
39955;PMS5003;25631;51.516;-0.470;2023-07-13T05:32:28;4;4;
39955;PMS5003;25631;51.516;-0.470;2023-07-13T05:35:05;4;4;
39955;PMS5003;25631;51.516;-0.470;2023-07-13T05:37:42;5;4;
39955;PMS5003;25631;51.516;-0.470;2023-07-13T05:40:19;4;4;
39955;PMS5003;25631;51.516;-0.470;2023-07-13T05:42:56;3;3;
39955;PMS5003;25631;51.516;-0.470;2023-07-13T05:45:32;9;7;
39955;PMS5003;25631;51.516;-0.470;2023-07-13T05:48:09;9;6;
39955;PMS5003;25631;51.516;-0.470;2023-07-13T05:50:45;9;6;
39955;PMS5003;25631;51.516;-0.470;2023-07-13T05:53:23;6;5;
39955;PMS5003;25631;51.516;-0.470;2023-07-13T05:55:59;6;5;
39955;PMS5003;25631;51.516;-0.470;2023-07-13T05:58:36;4;3;
39955;PMS5003;25631;51.516;-0.470;2023-07-13T06:01:13;4;3;
39955;PMS5003;25631;51.516;-0.470;2023-07-13T06:03:51;3;2;
39955;PMS5003;25631;51.516;-0.470;2023-07-13T06:06:27;1;1;
39955;PMS5003;25631;51.516;-0.470;2023-07-13T06:09:04;3;1;
39955;PMS5003;25631;51.516;-0.470;2023-07-13T06:11:40;3;1;
39955;PMS5003;25631;51.516;-0.470;2023-07-13T06:14:16;1;1;
39955;PMS5003;25631;51.516;-0.470;2023-07-13T06:16:53;0;0;
39955;PMS5003;25631;51.516;-0.470;2023-07-13T06:19:29;1;1;
39955;PMS5003;25631;51.516;-0.470;2023-07-13T06:22:06;1;1;
39955;PMS5003;25631;51.516;-0.470;2023-07-13T06:24:42;2;1;
39955;PMS5003;25631;51.516;-0.470;2023-07-13T06:27:19;1;1;
39955;PMS5003;25631;51.516;-0.470;2023-07-13T06:29:56;1;1;
39955;PMS5003;25631;51.516;-0.470;2023-07-13T06:32:33;0;0;
39955;PMS5003;25631;51.516;-0.470;2023-07-13T06:35:09;0;0;
39955;PMS5003;25631;51.516;-0.470;2023-07-13T06:37:45;1;0;
39955;PMS5003;25631;51.516;-0.470;2023-07-13T06:40:22;0;0;
39955;PMS5003;25631;51.516;-0.470;2023-07-13T06:42:58;0;0;
39955;PMS5003;25631;51.516;-0.470;2023-07-13T06:45:36;1;1;
39955;PMS5003;25631;51.516;-0.470;2023-07-13T06:48:18;1;1;
39955;PMS5003;25631;51.516;-0.470;2023-07-13T06:50:54;0;0;
39955;PMS5003;25631;51.516;-0.470;2023-07-13T06:53:31;1;1;
39955;PMS5003;25631;51.516;-0.470;2023-07-13T06:56:07;1;1;
39955;PMS5003;25631;51.516;-0.470;2023-07-13T06:58:44;0;0;
39955;PMS5003;25631;51.516;-0.470;2023-07-13T07:01:20;1;1;
39955;PMS5003;25631;51.516;-0.470;2023-07-13T07:03:57;1;1;
39955;PMS5003;25631;51.516;-0.470;2023-07-13T07:06:33;1;1;
39955;PMS5003;25631;51.516;-0.470;2023-07-13T07:09:09;0;0;
39955;PMS5003;25631;51.516;-0.470;2023-07-13T07:11:46;1;1;
39955;PMS5003;25631;51.516;-0.470;2023-07-13T07:14:22;2;2;
39955;PMS5003;25631;51.516;-0.470;2023-07-13T07:16:59;2;2;
39955;PMS5003;25631;51.516;-0.470;2023-07-13T07:19:35;1;1;
39955;PMS5003;25631;51.516;-0.470;2023-07-13T07:22:12;1;1;
39955;PMS5003;25631;51.516;-0.470;2023-07-13T07:24:49;3;2;
39955;PMS5003;25631;51.516;-0.470;2023-07-13T07:27:25;1;1;
39955;PMS5003;25631;51.516;-0.470;2023-07-13T07:30:02;0;0;
39955;PMS5003;25631;51.516;-0.470;2023-07-13T07:32:39;1;1;
39955;PMS5003;25631;51.516;-0.470;2023-07-13T07:35:15;1;1;
39955;PMS5003;25631;51.516;-0.470;2023-07-13T07:37:52;1;1;
39955;PMS5003;25631;51.516;-0.470;2023-07-13T07:40:28;1;1;
39955;PMS5003;25631;51.516;-0.470;2023-07-13T07:43:05;1;1;
39955;PMS5003;25631;51.516;-0.470;2023-07-13T07:45:41;1;1;
39955;PMS5003;25631;51.516;-0.470;2023-07-13T07:48:20;1;1;
39955;PMS5003;25631;51.516;-0.470;2023-07-13T07:50:56;1;1;
39955;PMS5003;25631;51.516;-0.470;2023-07-13T07:53:33;0;0;
39955;PMS5003;25631;51.516;-0.470;2023-07-13T07:56:09;1;1;
39955;PMS5003;25631;51.516;-0.470;2023-07-13T07:58:46;0;0;
39955;PMS5003;25631;51.516;-0.470;2023-07-13T08:01:22;1;1;
39955;PMS5003;25631;51.516;-0.470;2023-07-13T08:03:59;1;1;
39955;PMS5003;25631;51.516;-0.470;2023-07-13T08:06:36;1;1;
39955;PMS5003;25631;51.516;-0.470;2023-07-13T08:09:12;1;1;
39955;PMS5003;25631;51.516;-0.470;2023-07-13T08:11:49;1;1;
39955;PMS5003;25631;51.516;-0.470;2023-07-13T08:14:25;0;0;
39955;PMS5003;25631;51.516;-0.470;2023-07-13T08:17:02;0;0;
39955;PMS5003;25631;51.516;-0.470;2023-07-13T08:19:38;0;0;
39955;PMS5003;25631;51.516;-0.470;2023-07-13T08:22:15;0;0;
39955;PMS5003;25631;51.516;-0.470;2023-07-13T08:24:52;0;0;
39955;PMS5003;25631;51.516;-0.470;2023-07-13T08:27:28;1;1;
39955;PMS5003;25631;51.516;-0.470;2023-07-13T08:30:05;1;1;
39955;PMS5003;25631;51.516;-0.470;2023-07-13T08:32:42;1;1;
39955;PMS5003;25631;51.516;-0.470;2023-07-13T08:35:19;0;0;
39955;PMS5003;25631;51.516;-0.470;2023-07-13T08:37:56;0;0;
39955;PMS5003;25631;51.516;-0.470;2023-07-13T08:40:32;1;1;
39955;PMS5003;25631;51.516;-0.470;2023-07-13T08:43:12;0;0;
39955;PMS5003;25631;51.516;-0.470;2023-07-13T08:45:52;1;1;
39955;PMS5003;25631;51.516;-0.470;2023-07-13T08:48:34;0;0;
39955;PMS5003;25631;51.516;-0.470;2023-07-13T08:51:19;2;2;
39955;PMS5003;25631;51.516;-0.470;2023-07-13T08:54:04;0;0;
39955;PMS5003;25631;51.516;-0.470;2023-07-13T08:56:46;0;0;
39955;PMS5003;25631;51.516;-0.470;2023-07-13T08:59:26;1;1;
39955;PMS5003;25631;51.516;-0.470;2023-07-13T09:02:14;0;0;
39955;PMS5003;25631;51.516;-0.470;2023-07-13T09:04:59;1;1;
39955;PMS5003;25631;51.516;-0.470;2023-07-13T09:07:41;1;1;
39955;PMS5003;25631;51.516;-0.470;2023-07-13T09:10:35;1;1;
39955;PMS5003;25631;51.516;-0.470;2023-07-13T09:13:20;0;0;
39955;PMS5003;25631;51.516;-0.470;2023-07-13T09:16:04;1;1;
39955;PMS5003;25631;51.516;-0.470;2023-07-13T09:18:42;0;0;
39955;PMS5003;25631;51.516;-0.470;2023-07-13T09:21:23;0;0;
39955;PMS5003;25631;51.516;-0.470;2023-07-13T09:24:22;1;1;
39955;PMS5003;25631;51.516;-0.470;2023-07-13T09:27:13;1;1;
39955;PMS5003;25631;51.516;-0.470;2023-07-13T09:29:54;2;1;
39955;PMS5003;25631;51.516;-0.470;2023-07-13T09:32:37;1;1;
39955;PMS5003;25631;51.516;-0.470;2023-07-13T09:35:16;1;0;
39955;PMS5003;25631;51.516;-0.470;2023-07-13T09:37:59;1;1;
39955;PMS5003;25631;51.516;-0.470;2023-07-13T09:40:46;2;1;
39955;PMS5003;25631;51.516;-0.470;2023-07-13T09:43:32;0;0;
39955;PMS5003;25631;51.516;-0.470;2023-07-13T09:46:20;0;0;
39955;PMS5003;25631;51.516;-0.470;2023-07-13T09:48:57;0;0;
39955;PMS5003;25631;51.516;-0.470;2023-07-13T09:51:33;0;0;
39955;PMS5003;25631;51.516;-0.470;2023-07-13T09:54:18;0;0;
39955;PMS5003;25631;51.516;-0.470;2023-07-13T09:56:56;1;0;
39955;PMS5003;25631;51.516;-0.470;2023-07-13T09:59:36;2;0;
39955;PMS5003;25631;51.516;-0.470;2023-07-13T10:02:26;2;0;
39955;PMS5003;25631;51.516;-0.470;2023-07-13T10:05:05;1;1;
39955;PMS5003;25631;51.516;-0.470;2023-07-13T10:07:49;1;1;
39955;PMS5003;25631;51.516;-0.470;2023-07-13T10:10:26;0;0;
39955;PMS5003;25631;51.516;-0.470;2023-07-13T10:13:02;0;0;
39955;PMS5003;25631;51.516;-0.470;2023-07-13T10:15:39;0;0;
39955;PMS5003;25631;51.516;-0.470;2023-07-13T10:18:15;1;1;
39955;PMS5003;25631;51.516;-0.470;2023-07-13T10:20:54;1;1;
39955;PMS5003;25631;51.516;-0.470;2023-07-13T10:23:34;1;1;
39955;PMS5003;25631;51.516;-0.470;2023-07-13T10:26:13;1;0;
39955;PMS5003;25631;51.516;-0.470;2023-07-13T10:28:56;1;0;
39955;PMS5003;25631;51.516;-0.470;2023-07-13T10:31:37;0;0;
39955;PMS5003;25631;51.516;-0.470;2023-07-13T10:34:14;0;0;
39955;PMS5003;25631;51.516;-0.470;2023-07-13T10:36:51;0;0;
39955;PMS5003;25631;51.516;-0.470;2023-07-13T10:39:28;1;1;
39955;PMS5003;25631;51.516;-0.470;2023-07-13T10:42:06;1;1;
39955;PMS5003;25631;51.516;-0.470;2023-07-13T10:44:51;3;3;
39955;PMS5003;25631;51.516;-0.470;2023-07-13T10:47:27;3;3;
39955;PMS5003;25631;51.516;-0.470;2023-07-13T10:50:04;1;1;
39955;PMS5003;25631;51.516;-0.470;2023-07-13T10:52:49;0;0;
39955;PMS5003;25631;51.516;-0.470;2023-07-13T10:55:31;0;0;
39955;PMS5003;25631;51.516;-0.470;2023-07-13T10:58:12;3;1;
39955;PMS5003;25631;51.516;-0.470;2023-07-13T11:00:56;2;1;
39955;PMS5003;25631;51.516;-0.470;2023-07-13T11:03:35;0;0;
39955;PMS5003;25631;51.516;-0.470;2023-07-13T11:06:15;0;0;
39955;PMS5003;25631;51.516;-0.470;2023-07-13T11:08:53;0;0;
39955;PMS5003;25631;51.516;-0.470;2023-07-13T11:11:32;1;0;
39955;PMS5003;25631;51.516;-0.470;2023-07-13T11:14:28;1;0;
39955;PMS5003;25631;51.516;-0.470;2023-07-13T11:18:23;1;1;
39955;PMS5003;25631;51.516;-0.470;2023-07-13T11:21:12;1;1;
39955;PMS5003;25631;51.516;-0.470;2023-07-13T11:23:51;2;2;
39955;PMS5003;25631;51.516;-0.470;2023-07-13T11:26:37;0;0;
39955;PMS5003;25631;51.516;-0.470;2023-07-13T11:29:23;2;2;
39955;PMS5003;25631;51.516;-0.470;2023-07-13T11:32:21;1;1;
39955;PMS5003;25631;51.516;-0.470;2023-07-13T11:34:59;1;1;
39955;PMS5003;25631;51.516;-0.470;2023-07-13T11:37:36;3;2;
39955;PMS5003;25631;51.516;-0.470;2023-07-13T11:40:14;2;2;
39955;PMS5003;25631;51.516;-0.470;2023-07-13T11:42:51;3;2;
39955;PMS5003;25631;51.516;-0.470;2023-07-13T11:45:28;1;1;
39955;PMS5003;25631;51.516;-0.470;2023-07-13T11:48:04;1;1;
39955;PMS5003;25631;51.516;-0.470;2023-07-13T11:50:41;1;1;
39955;PMS5003;25631;51.516;-0.470;2023-07-13T11:53:17;1;1;
39955;PMS5003;25631;51.516;-0.470;2023-07-13T11:55:54;1;1;
39955;PMS5003;25631;51.516;-0.470;2023-07-13T11:58:32;0;0;
39955;PMS5003;25631;51.516;-0.470;2023-07-13T12:01:14;1;1;
39955;PMS5003;25631;51.516;-0.470;2023-07-13T12:03:55;2;2;
39955;PMS5003;25631;51.516;-0.470;2023-07-13T12:06:33;2;2;
39955;PMS5003;25631;51.516;-0.470;2023-07-13T12:09:12;2;2;
39955;PMS5003;25631;51.516;-0.470;2023-07-13T12:11:50;3;3;
39955;PMS5003;25631;51.516;-0.470;2023-07-13T12:14:27;3;3;
39955;PMS5003;25631;51.516;-0.470;2023-07-13T12:17:07;3;3;
39955;PMS5003;25631;51.516;-0.470;2023-07-13T12:19:48;2;2;
39955;PMS5003;25631;51.516;-0.470;2023-07-13T12:22:26;2;2;
39955;PMS5003;25631;51.516;-0.470;2023-07-13T12:25:03;2;2;
39955;PMS5003;25631;51.516;-0.470;2023-07-13T12:27:41;2;2;
39955;PMS5003;25631;51.516;-0.470;2023-07-13T12:30:24;2;2;
39955;PMS5003;25631;51.516;-0.470;2023-07-13T12:33:05;4;3;
39955;PMS5003;25631;51.516;-0.470;2023-07-13T12:35:44;4;3;
39955;PMS5003;25631;51.516;-0.470;2023-07-13T12:38:24;1;1;
39955;PMS5003;25631;51.516;-0.470;2023-07-13T12:41:01;2;1;
39955;PMS5003;25631;51.516;-0.470;2023-07-13T12:43:38;2;1;
39955;PMS5003;25631;51.516;-0.470;2023-07-13T12:46:16;1;1;
39955;PMS5003;25631;51.516;-0.470;2023-07-13T12:48:55;1;1;
39955;PMS5003;25631;51.516;-0.470;2023-07-13T12:51:33;2;2;
39955;PMS5003;25631;51.516;-0.470;2023-07-13T12:54:13;2;2;
39955;PMS5003;25631;51.516;-0.470;2023-07-13T12:56:52;3;3;
39955;PMS5003;25631;51.516;-0.470;2023-07-13T12:59:30;2;2;
39955;PMS5003;25631;51.516;-0.470;2023-07-13T13:02:17;2;2;
39955;PMS5003;25631;51.516;-0.470;2023-07-13T13:05:02;1;1;
39955;PMS5003;25631;51.516;-0.470;2023-07-13T13:07:39;1;1;
39955;PMS5003;25631;51.516;-0.470;2023-07-13T13:10:16;2;2;
39955;PMS5003;25631;51.516;-0.470;2023-07-13T13:12:52;3;2;
39955;PMS5003;25631;51.516;-0.470;2023-07-13T13:15:29;2;1;
39955;PMS5003;25631;51.516;-0.470;2023-07-13T13:18:09;0;0;
39955;PMS5003;25631;51.516;-0.470;2023-07-13T13:20:52;1;1;
39955;PMS5003;25631;51.516;-0.470;2023-07-13T13:23:28;1;1;
39955;PMS5003;25631;51.516;-0.470;2023-07-13T13:26:05;3;1;
39955;PMS5003;25631;51.516;-0.470;2023-07-13T13:28:46;3;1;
39955;PMS5003;25631;51.516;-0.470;2023-07-13T13:31:23;2;1;
39955;PMS5003;25631;51.516;-0.470;2023-07-13T13:33:59;2;1;
39955;PMS5003;25631;51.516;-0.470;2023-07-13T13:36:36;3;2;
39955;PMS5003;25631;51.516;-0.470;2023-07-13T13:39:20;3;2;
39955;PMS5003;25631;51.516;-0.470;2023-07-13T13:41:59;3;2;
39955;PMS5003;25631;51.516;-0.470;2023-07-13T13:44:35;3;3;
39955;PMS5003;25631;51.516;-0.470;2023-07-13T13:47:17;2;2;
39955;PMS5003;25631;51.516;-0.470;2023-07-13T13:50:02;2;1;
39955;PMS5003;25631;51.516;-0.470;2023-07-13T13:52:46;2;2;
39955;PMS5003;25631;51.516;-0.470;2023-07-13T13:55:23;2;2;
39955;PMS5003;25631;51.516;-0.470;2023-07-13T13:57:59;3;3;
39955;PMS5003;25631;51.516;-0.470;2023-07-13T14:00:36;1;1;
39955;PMS5003;25631;51.516;-0.470;2023-07-13T14:03:14;2;2;
39955;PMS5003;25631;51.516;-0.470;2023-07-13T14:05:53;4;4;
39955;PMS5003;25631;51.516;-0.470;2023-07-13T14:08:31;4;4;
39955;PMS5003;25631;51.516;-0.470;2023-07-13T14:11:07;3;3;
39955;PMS5003;25631;51.516;-0.470;2023-07-13T14:13:48;3;3;
39955;PMS5003;25631;51.516;-0.470;2023-07-13T14:16:28;3;3;
39955;PMS5003;25631;51.516;-0.470;2023-07-13T14:19:12;4;3;
39955;PMS5003;25631;51.516;-0.470;2023-07-13T14:21:49;4;4;
39955;PMS5003;25631;51.516;-0.470;2023-07-13T14:24:26;4;4;
39955;PMS5003;25631;51.516;-0.470;2023-07-13T14:27:03;5;5;
39955;PMS5003;25631;51.516;-0.470;2023-07-13T14:29:40;4;4;
39955;PMS5003;25631;51.516;-0.470;2023-07-13T14:32:17;4;4;
39955;PMS5003;25631;51.516;-0.470;2023-07-13T14:34:53;5;4;
39955;PMS5003;25631;51.516;-0.470;2023-07-13T14:37:30;4;4;
39955;PMS5003;25631;51.516;-0.470;2023-07-13T14:40:12;7;6;
39955;PMS5003;25631;51.516;-0.470;2023-07-13T14:42:49;6;5;
39955;PMS5003;25631;51.516;-0.470;2023-07-13T14:45:26;5;4;
39955;PMS5003;25631;51.516;-0.470;2023-07-13T14:48:04;5;5;
39955;PMS5003;25631;51.516;-0.470;2023-07-13T14:50:45;4;4;
39955;PMS5003;25631;51.516;-0.470;2023-07-13T14:53:22;4;4;
39955;PMS5003;25631;51.516;-0.470;2023-07-13T14:56:00;4;4;
39955;PMS5003;25631;51.516;-0.470;2023-07-13T14:58:37;4;4;
39955;PMS5003;25631;51.516;-0.470;2023-07-13T15:01:14;3;3;
39955;PMS5003;25631;51.516;-0.470;2023-07-13T15:03:52;3;3;
39955;PMS5003;25631;51.516;-0.470;2023-07-13T15:06:29;3;3;
39955;PMS5003;25631;51.516;-0.470;2023-07-13T15:09:07;4;4;
39955;PMS5003;25631;51.516;-0.470;2023-07-13T15:11:47;3;3;
39955;PMS5003;25631;51.516;-0.470;2023-07-13T15:14:24;5;5;
39955;PMS5003;25631;51.516;-0.470;2023-07-13T15:17:01;4;4;
39955;PMS5003;25631;51.516;-0.470;2023-07-13T15:19:38;4;4;
39955;PMS5003;25631;51.516;-0.470;2023-07-13T15:22:14;5;5;
39955;PMS5003;25631;51.516;-0.470;2023-07-13T15:24:51;5;5;
39955;PMS5003;25631;51.516;-0.470;2023-07-13T15:27:27;5;4;
39955;PMS5003;25631;51.516;-0.470;2023-07-13T15:30:04;5;5;
39955;PMS5003;25631;51.516;-0.470;2023-07-13T15:32:41;5;5;
39955;PMS5003;25631;51.516;-0.470;2023-07-13T15:35:19;5;5;
39955;PMS5003;25631;51.516;-0.470;2023-07-13T15:37:57;6;6;
39955;PMS5003;25631;51.516;-0.470;2023-07-13T15:40:33;6;6;
39955;PMS5003;25631;51.516;-0.470;2023-07-13T15:43:10;6;6;
39955;PMS5003;25631;51.516;-0.470;2023-07-13T15:45:47;5;5;
39955;PMS5003;25631;51.516;-0.470;2023-07-13T15:48:25;5;5;
39955;PMS5003;25631;51.516;-0.470;2023-07-13T15:51:03;5;5;
39955;PMS5003;25631;51.516;-0.470;2023-07-13T15:53:40;6;5;
39955;PMS5003;25631;51.516;-0.470;2023-07-13T15:56:18;4;4;
39955;PMS5003;25631;51.516;-0.470;2023-07-13T15:58:57;5;5;
39955;PMS5003;25631;51.516;-0.470;2023-07-13T16:01:33;5;5;
39955;PMS5003;25631;51.516;-0.470;2023-07-13T16:04:11;3;3;
39955;PMS5003;25631;51.516;-0.470;2023-07-13T16:06:47;5;5;
39955;PMS5003;25631;51.516;-0.470;2023-07-13T16:09:24;8;8;
39955;PMS5003;25631;51.516;-0.470;2023-07-13T16:12:01;8;8;
39955;PMS5003;25631;51.516;-0.470;2023-07-13T16:14:37;8;8;
39955;PMS5003;25631;51.516;-0.470;2023-07-13T16:17:15;10;10;
39955;PMS5003;25631;51.516;-0.470;2023-07-13T16:19:52;10;9;
39955;PMS5003;25631;51.516;-0.470;2023-07-13T16:22:28;6;6;
39955;PMS5003;25631;51.516;-0.470;2023-07-13T16:25:12;7;7;
39955;PMS5003;25631;51.516;-0.470;2023-07-13T16:27:50;9;8;
39955;PMS5003;25631;51.516;-0.470;2023-07-13T16:30:28;10;8;
39955;PMS5003;25631;51.516;-0.470;2023-07-13T16:33:06;9;8;
39955;PMS5003;25631;51.516;-0.470;2023-07-13T16:35:42;7;7;
39955;PMS5003;25631;51.516;-0.470;2023-07-13T16:38:19;7;7;
39955;PMS5003;25631;51.516;-0.470;2023-07-13T16:40:57;7;7;
39955;PMS5003;25631;51.516;-0.470;2023-07-13T16:43:34;8;8;
39955;PMS5003;25631;51.516;-0.470;2023-07-13T16:46:11;8;8;
39955;PMS5003;25631;51.516;-0.470;2023-07-13T16:48:50;9;9;
39955;PMS5003;25631;51.516;-0.470;2023-07-13T16:51:27;9;9;
39955;PMS5003;25631;51.516;-0.470;2023-07-13T16:54:07;9;9;
39955;PMS5003;25631;51.516;-0.470;2023-07-13T16:56:43;10;9;
39955;PMS5003;25631;51.516;-0.470;2023-07-13T16:59:29;10;10;
39955;PMS5003;25631;51.516;-0.470;2023-07-13T17:02:30;9;8;
39955;PMS5003;25631;51.516;-0.470;2023-07-13T17:05:09;8;7;
39955;PMS5003;25631;51.516;-0.470;2023-07-13T17:07:46;8;8;
39955;PMS5003;25631;51.516;-0.470;2023-07-13T17:10:24;10;10;
39955;PMS5003;25631;51.516;-0.470;2023-07-13T17:13:01;10;10;
39955;PMS5003;25631;51.516;-0.470;2023-07-13T17:15:38;9;9;
39955;PMS5003;25631;51.516;-0.470;2023-07-13T17:18:15;9;9;
39955;PMS5003;25631;51.516;-0.470;2023-07-13T17:20:52;9;8;
39955;PMS5003;25631;51.516;-0.470;2023-07-13T17:23:29;9;9;
39955;PMS5003;25631;51.516;-0.470;2023-07-13T17:26:06;10;10;
39955;PMS5003;25631;51.516;-0.470;2023-07-13T17:28:42;8;7;
39955;PMS5003;25631;51.516;-0.470;2023-07-13T17:31:19;9;8;
39955;PMS5003;25631;51.516;-0.470;2023-07-13T17:33:56;7;7;
39955;PMS5003;25631;51.516;-0.470;2023-07-13T17:36:33;8;8;
39955;PMS5003;25631;51.516;-0.470;2023-07-13T17:39:11;7;7;
39955;PMS5003;25631;51.516;-0.470;2023-07-13T17:41:49;6;6;
39955;PMS5003;25631;51.516;-0.470;2023-07-13T17:44:26;7;7;
39955;PMS5003;25631;51.516;-0.470;2023-07-13T17:47:02;8;7;